Time;durP1;ratioP1;P1;durP2;ratioP2;P2;SDS_P1;SDS_P2;PMS_P1;PMS_P2;Temp;Humidity;BMP_temperature;BMP_pressure;BME280_temperature;BME280_humidity;BME280_pressure;Samples;Min_cycle;Max_cycle;Signal;HPM_P1;HPM_P2
2024/02/06 00:02:00;;;;;;;3.30;1.50;;;;;;;0.71;77.84;98400.48;105857;1257;73972;-76
2024/02/06 00:04:28;;;;;;;6.00;1.70;;;;;;;0.67;77.82;98395.62;105698;1257;69075;-77
2024/02/06 00:06:55;;;;;;;4.60;1.60;;;;;;;0.70;77.93;98401.79;105616;1257;72881;-75
2024/02/06 00:09:23;;;;;;;5.50;1.80;;;;;;;0.72;78.07;98411.08;105654;1262;60528;-75
2024/02/06 00:11:50;;;;;;;3.60;1.80;;;;;;;0.65;78.10;98407.70;105824;1256;60334;-75
2024/02/06 00:14:18;;;;;;;6.20;2.20;;;;;;;0.62;78.34;98411.77;106370;1257;73852;-75
2024/02/06 00:16:45;;;;;;;5.70;1.90;;;;;;;0.67;78.26;98411.98;107599;1257;68751;-75
2024/02/06 00:19:13;;;;;;;4.30;2.20;;;;;;;0.69;78.49;98410.95;107456;1257;71632;-75
2024/02/06 00:21:41;;;;;;;5.50;2.40;;;;;;;0.66;78.71;98410.70;106210;1257;60578;-74
2024/02/06 00:24:08;;;;;;;7.50;2.60;;;;;;;0.64;79.25;98408.48;106057;1262;60384;-77
2024/02/06 00:26:36;;;;;;;5.10;2.60;;;;;;;0.69;78.93;98409.77;105753;1257;72529;-76
2024/02/06 00:29:03;;;;;;;7.30;2.40;;;;;;;0.69;79.09;98403.65;105705;1258;69260;-76
2024/02/06 00:31:31;;;;;;;6.50;2.50;;;;;;;0.62;79.33;98398.86;105505;1258;72758;-79
2024/02/06 00:33:58;;;;;;;4.30;1.80;;;;;;;0.60;79.89;98393.61;105648;1257;60852;-78
2024/02/06 00:36:26;;;;;;;4.60;2.30;;;;;;;0.66;80.06;98389.11;106229;1257;60444;-78
2024/02/06 00:38:53;;;;;;;7.70;2.00;;;;;;;0.68;80.35;98394.03;106774;1257;72786;-78
2024/02/06 00:41:21;;;;;;;6.40;2.00;;;;;;;0.61;80.47;98397.91;105782;1263;67872;-79
2024/02/06 00:43:48;;;;;;;4.50;2.10;;;;;;;0.54;80.81;98394.16;105768;1258;71779;-76
2024/02/06 00:46:16;;;;;;;4.30;1.80;;;;;;;0.58;80.96;98395.39;105631;1258;60505;-78
2024/02/06 00:48:43;;;;;;;6.10;2.00;;;;;;;0.62;81.11;98394.05;105489;1257;60529;-78
2024/02/06 00:51:11;;;;;;;4.60;2.20;;;;;;;0.57;81.24;98391.63;105780;1260;75342;-78
2024/02/06 00:53:38;;;;;;;6.20;2.50;;;;;;;0.49;81.80;98394.85;105688;1257;69976;-77
2024/02/06 00:56:06;;;;;;;4.20;1.80;;;;;;;0.46;81.99;98394.19;105762;1257;72717;-77
2024/02/06 00:58:33;;;;;;;6.00;2.70;;;;;;;0.51;82.01;98395.46;105609;1257;60879;-78
2024/02/06 01:01:01;;;;;;;8.50;2.50;;;;;;;0.52;81.97;98401.11;105484;1257;60636;-77
2024/02/06 01:03:28;;;;;;;5.60;2.40;;;;;;;0.46;82.17;98404.09;105791;1256;72052;-77
2024/02/06 01:05:56;;;;;;;6.90;2.00;;;;;;;0.43;82.05;98396.55;106214;1261;70516;-77
2024/02/06 01:08:24;;;;;;;6.00;2.60;;;;;;;0.49;82.04;98402.08;106811;1260;71456;-77
2024/02/06 01:10:51;;;;;;;7.10;2.30;;;;;;;0.52;82.06;98406.00;106387;1257;60562;-77
2024/02/06 01:13:19;;;;;;;4.50;1.90;;;;;;;0.49;82.12;98398.98;107967;1256;59085;-76
2024/02/06 01:15:46;;;;;;;3.40;1.40;;;;;;;0.44;81.98;98396.64;108257;1256;72670;-78
2024/02/06 01:18:14;;;;;;;4.10;1.80;;;;;;;0.46;81.70;98392.91;106783;1260;69008;-77
2024/02/06 01:20:41;;;;;;;6.00;1.90;;;;;;;0.52;81.39;98394.16;106575;1258;71758;-78
2024/02/06 01:23:09;;;;;;;4.10;1.60;;;;;;;0.48;81.26;98392.95;106481;1257;60434;-75
2024/02/06 01:25:37;;;;;;;6.30;1.80;;;;;;;0.39;81.31;98391.09;107153;1257;59339;-75
2024/02/06 01:28:06;;;;;;;4.30;1.60;;;;;;;0.35;81.15;98391.48;107688;1257;73113;-76
2024/02/06 01:30:33;;;;;;;4.00;1.30;;;;;;;0.41;80.91;98389.92;105609;1262;69302;-79
2024/02/06 01:33:01;;;;;;;7.60;2.00;;;;;;;0.39;80.69;98388.67;105552;1261;70854;-76
2024/02/06 01:35:29;;;;;;;7.40;2.20;;;;;;;0.33;80.94;98383.54;105486;1257;61522;-76
2024/02/06 01:37:56;;;;;;;7.90;2.20;;;;;;;0.30;80.69;98382.90;105576;1257;60482;-74
2024/02/06 01:40:24;;;;;;;4.10;1.50;;;;;;;0.37;80.40;98386.81;105501;1262;72661;-76
2024/02/06 01:42:51;;;;;;;7.80;2.20;;;;;;;0.39;80.30;98390.80;105934;1257;70414;-76
2024/02/06 01:45:19;;;;;;;4.30;1.80;;;;;;;0.36;80.55;98392.12;106028;1260;71605;-77
2024/02/06 01:47:46;;;;;;;7.90;1.70;;;;;;;0.38;80.86;98391.95;105965;1257;60962;-76
2024/02/06 01:50:14;;;;;;;3.80;2.30;;;;;;;0.48;80.51;98397.52;106119;1263;60365;-77
2024/02/06 01:52:42;;;;;;;5.90;2.20;;;;;;;0.48;80.47;98402.73;106103;1257;72715;-77
2024/02/06 01:55:09;;;;;;;5.20;2.10;;;;;;;0.43;80.55;98395.50;107829;1256;68778;-76
2024/02/06 01:57:37;;;;;;;7.00;2.20;;;;;;;0.44;80.72;98394.77;108286;1256;71556;-76
2024/02/06 02:00:07;;;;;;;6.10;2.10;;;;;;;0.53;80.57;98392.34;107250;1257;60453;-76
2024/02/06 02:02:40;;;;;;;8.80;2.80;;;;;;;0.59;80.25;98395.61;105704;1258;60520;-77
2024/02/06 02:05:08;;;;;;;7.90;2.50;;;;;;;0.55;80.27;98398.56;105632;1258;73868;-76
2024/02/06 02:07:35;;;;;;;8.40;2.40;;;;;;;0.51;80.33;98402.78;105581;1262;70627;-76
2024/02/06 02:10:03;;;;;;;6.50;1.90;;;;;;;0.50;80.29;98403.89;105722;1258;72514;-76
2024/02/06 02:12:35;;;;;;;8.20;2.00;;;;;;;0.57;79.96;98402.05;108587;1256;59638;-76
2024/02/06 02:15:04;;;;;;;3.90;2.30;;;;;;;0.62;79.78;98403.56;108603;1256;197670;-77
2024/02/06 02:18:45;;;;;;;5.10;1.90;;;;;;;0.59;79.75;98403.95;102942;1292;600383;-75
2024/02/06 02:21:12;;;;;;;5.60;2.40;;;;;;;0.57;80.06;98410.61;105267;1268;59656;-77
2024/02/06 02:23:41;;;;;;;6.30;2.10;;;;;;;0.66;79.97;98415.82;105144;1267;59439;-77
2024/02/06 02:26:09;;;;;;;4.30;1.80;;;;;;;0.71;79.83;98419.30;105241;1266;70823;-76
2024/02/06 02:28:37;;;;;;;6.30;1.90;;;;;;;0.69;79.40;98420.23;105479;1273;69978;-77
2024/02/06 02:31:05;;;;;;;8.50;1.90;;;;;;;0.63;79.64;98421.75;105740;1260;71462;-76
2024/02/06 02:33:33;;;;;;;4.50;1.70;;;;;;;0.62;79.54;98419.96;105512;1258;177843;-76
2024/02/06 02:36:06;;;;;;;7.10;2.10;;;;;;;0.68;79.36;98419.12;105493;1257;59299;-75
2024/02/06 02:38:36;;;;;;;6.60;1.70;;;;;;;0.67;79.26;98417.91;105490;1257;72260;-76
2024/02/06 02:41:04;;;;;;;7.70;2.20;;;;;;;0.61;79.42;98419.85;105384;1262;69281;-75
2024/02/06 02:43:32;;;;;;;7.00;2.20;;;;;;;0.58;79.50;98421.70;105460;1257;72720;-76
2024/02/06 02:45:59;;;;;;;8.40;2.50;;;;;;;0.65;79.27;98423.33;105423;1259;59745;-77
2024/02/06 02:48:27;;;;;;;5.10;2.10;;;;;;;0.70;79.16;98422.06;105473;1257;61513;-76
2024/02/06 02:50:55;;;;;;;8.60;2.70;;;;;;;0.66;79.09;98419.78;105436;1259;73095;-76
2024/02/06 02:53:22;;;;;;;4.90;2.00;;;;;;;0.61;79.09;98422.69;105528;1259;69799;-77
2024/02/06 02:55:49;;;;;;;5.80;2.10;;;;;;;0.59;79.18;98420.41;105551;1259;73187;-76
2024/02/06 02:58:17;;;;;;;6.60;2.70;;;;;;;0.66;78.99;98422.73;105541;1262;59679;-76
2024/02/06 03:00:45;;;;;;;6.40;2.20;;;;;;;0.74;78.63;98422.04;105626;1262;61032;-76
2024/02/06 03:03:13;;;;;;;7.50;2.90;;;;;;;0.72;78.61;98421.13;105710;1256;72056;-76
2024/02/06 03:05:41;;;;;;;13.50;7.20;;;;;;;0.67;78.54;98416.86;105938;1256;68885;-76
2024/02/06 03:08:09;;;;;;;9.90;3.30;;;;;;;0.64;78.64;98419.31;105603;1262;71402;-74
2024/02/06 03:10:36;;;;;;;6.80;2.40;;;;;;;0.67;78.57;98416.89;107896;1256;59585;-77
2024/02/06 03:13:04;;;;;;;6.50;2.60;;;;;;;0.78;78.29;98417.10;108695;1256;58740;-76
2024/02/06 03:15:31;;;;;;;6.30;2.60;;;;;;;0.82;77.92;98414.70;107054;1257;71800;-74
2024/02/06 03:17:59;;;;;;;7.90;3.70;;;;;;;0.80;77.99;98415.90;106198;1253;70145;-76
2024/02/06 03:20:27;;;;;;;6.10;3.50;;;;;;;0.79;77.62;98415.95;107588;1256;70507;-76
2024/02/06 03:22:54;;;;;;;11.60;5.40;;;;;;;0.88;77.45;98418.34;106256;1256;59691;-78
2024/02/06 03:25:21;;;;;;;8.20;4.80;;;;;;;0.94;77.28;98415.17;106244;1253;59960;-77
2024/02/06 03:27:50;;;;;;;8.00;4.90;;;;;;;0.93;77.11;98415.45;106028;1253;71769;-76
2024/02/06 03:30:18;;;;;;;9.90;5.90;;;;;;;0.89;77.14;98415.97;106697;1253;70632;-76
2024/02/06 03:32:51;;;;;;;13.20;5.10;;;;;;;0.86;77.34;98414.16;105802;1253;70676;-75
2024/02/06 03:35:18;;;;;;;6.00;4.10;;;;;;;0.87;77.04;98418.77;105807;1258;59864;-75
2024/02/06 03:37:46;;;;;;;7.00;4.00;;;;;;;0.94;76.82;98417.36;105782;1253;60027;-76
2024/02/06 03:40:13;;;;;;;11.20;4.40;;;;;;;0.97;76.72;98415.71;105755;1258;72758;-76
2024/02/06 03:42:41;;;;;;;10.10;3.90;;;;;;;0.93;76.99;98420.13;105802;1254;70302;-74
2024/02/06 03:45:09;;;;;;;11.80;3.80;;;;;;;0.88;76.89;98420.45;106029;1254;71401;-74
2024/02/06 03:47:36;;;;;;;12.10;3.50;;;;;;;0.84;76.73;98422.14;105733;1255;59738;-75
2024/02/06 03:50:05;;;;;;;7.60;2.50;;;;;;;0.88;76.44;98419.68;105707;1260;60023;-74
2024/02/06 03:52:33;;;;;;;6.00;3.10;;;;;;;0.88;76.13;98412.06;105921;1259;73105;-76
2024/02/06 03:55:00;;;;;;;10.00;3.00;;;;;;;0.82;76.32;98412.79;105827;1258;70844;-76
2024/02/06 03:57:28;;;;;;;9.80;2.90;;;;;;;0.77;76.27;98412.17;105687;1253;72636;-75
2024/02/06 03:59:56;;;;;;;6.90;2.10;;;;;;;0.73;76.36;98409.21;105865;1254;59692;-76
2024/02/06 04:02:23;;;;;;;5.50;2.40;;;;;;;0.80;76.30;98413.84;105709;1255;59794;-76
2024/02/06 04:04:51;;;;;;;4.80;1.80;;;;;;;0.87;76.36;98415.62;105797;1254;71948;-76
2024/02/06 04:07:19;;;;;;;6.90;2.60;;;;;;;0.85;76.32;98422.77;106924;1253;69488;-76
2024/02/06 04:09:46;;;;;;;5.80;2.00;;;;;;;0.79;76.58;98418.77;108986;1253;71477;-76
2024/02/06 04:12:14;;;;;;;5.00;2.10;;;;;;;0.74;76.43;98418.34;107369;1254;60309;-75
2024/02/06 04:14:41;;;;;;;5.00;2.10;;;;;;;0.75;76.49;98418.77;106054;1253;59575;-76
2024/02/06 04:17:09;;;;;;;8.40;2.50;;;;;;;0.81;76.37;98417.04;106271;1258;72204;-75
2024/02/06 04:19:36;;;;;;;8.00;3.20;;;;;;;0.78;76.45;98416.04;106180;1253;68960;-76
2024/02/06 04:22:05;;;;;;;6.90;2.30;;;;;;;0.71;76.56;98412.68;105947;1254;72465;-76
2024/02/06 04:24:32;;;;;;;8.50;3.50;;;;;;;0.67;76.78;98414.83;105716;1261;59609;-75
2024/02/06 04:27:00;;;;;;;7.60;3.30;;;;;;;0.67;76.83;98414.66;105739;1257;60036;-76
2024/02/06 04:29:27;;;;;;;9.80;3.40;;;;;;;0.73;76.95;98416.34;105794;1253;72964;-76
2024/02/06 04:31:55;;;;;;;10.40;4.10;;;;;;;0.80;76.77;98416.77;105775;1258;69209;-76
2024/02/06 04:34:24;;;;;;;7.70;2.70;;;;;;;0.77;76.69;98415.95;105833;1259;70443;-76
2024/02/06 04:36:51;;;;;;;6.60;2.60;;;;;;;0.71;76.83;98415.81;105897;1253;59787;-77
2024/02/06 04:39:19;;;;;;;9.70;2.80;;;;;;;0.66;76.57;98415.21;105703;1260;59618;-76
2024/02/06 04:41:47;;;;;;;5.60;2.30;;;;;;;0.65;76.59;98418.79;105717;1253;71769;-78
2024/02/06 04:44:14;;;;;;;7.90;2.50;;;;;;;0.74;76.44;98420.24;105802;1259;68701;-76
2024/02/06 04:46:42;;;;;;;6.10;2.50;;;;;;;0.78;76.44;98423.92;105743;1259;72744;-75
2024/02/06 04:49:09;;;;;;;13.70;4.90;;;;;;;0.75;76.31;98425.39;105915;1253;59721;-75
2024/02/06 04:51:37;;;;;;;16.20;4.60;;;;;;;0.71;76.30;98425.91;105880;1258;60118;-75
2024/02/06 04:54:05;;;;;;;14.70;4.40;;;;;;;0.70;76.34;98430.75;106243;1257;72322;-76
2024/02/06 04:56:32;;;;;;;9.90;4.60;;;;;;;0.77;76.09;98432.70;105890;1253;70301;-77
2024/02/06 04:59:01;;;;;;;8.00;3.10;;;;;;;0.80;76.16;98438.95;105826;1258;72930;-76
2024/02/06 05:01:28;;;;;;;9.40;3.70;;;;;;;0.75;76.32;98435.16;105772;1258;59761;-76
2024/02/06 05:03:56;;;;;;;13.20;3.70;;;;;;;0.71;76.45;98434.69;106098;1254;59553;-76
2024/02/06 05:06:24;;;;;;;8.70;2.70;;;;;;;0.69;76.42;98432.91;106422;1257;73114;-76
2024/02/06 05:08:51;;;;;;;11.50;2.80;;;;;;;0.78;76.29;98433.47;109178;1252;69023;-74
2024/02/06 05:11:19;;;;;;;5.80;2.30;;;;;;;0.83;76.19;98426.97;109047;1255;71455;-76
2024/02/06 05:13:46;;;;;;;10.20;2.90;;;;;;;0.82;76.20;98438.70;106704;1257;59612;-76
2024/02/06 05:16:14;;;;;;;12.40;2.80;;;;;;;0.80;76.24;98448.67;106261;1259;60108;-75
2024/02/06 05:18:41;;;;;;;8.60;2.50;;;;;;;0.78;76.27;98450.02;106055;1259;72943;-75
2024/02/06 05:21:10;;;;;;;9.70;3.40;;;;;;;0.87;76.09;98447.04;105680;1261;68897;-76
2024/02/06 05:23:37;;;;;;;8.20;3.10;;;;;;;0.93;76.14;98448.54;105892;1255;72590;-76
2024/02/06 05:26:05;;;;;;;7.00;2.40;;;;;;;0.92;76.03;98444.95;105837;1257;59517;-76
2024/02/06 05:28:32;;;;;;;8.70;2.20;;;;;;;0.89;75.93;98446.05;105729;1259;59968;-76
2024/02/06 05:31:00;;;;;;;8.10;2.40;;;;;;;0.86;76.14;98436.26;106402;1257;73103;-75
2024/02/06 05:33:27;;;;;;;7.60;2.20;;;;;;;0.85;76.27;98432.73;106103;1254;70105;-77
2024/02/06 05:35:55;;;;;;;8.60;2.60;;;;;;;0.93;76.24;98433.73;106401;1253;72735;-79
2024/02/06 05:38:22;;;;;;;8.10;2.20;;;;;;;0.95;76.20;98432.17;108000;1253;59625;-78
2024/02/06 05:40:50;;;;;;;8.70;2.90;;;;;;;0.90;76.12;98435.19;107970;1254;60012;-78
2024/02/06 05:43:18;;;;;;;6.30;2.30;;;;;;;0.86;76.26;98429.30;106012;1259;72748;-77
2024/02/06 05:45:45;;;;;;;8.70;2.60;;;;;;;0.84;76.54;98430.84;106015;1253;70252;-76
2024/02/06 05:48:13;;;;;;;7.10;2.70;;;;;;;0.89;76.50;98429.88;105908;1253;72618;-76
2024/02/06 05:50:41;;;;;;;6.10;2.80;;;;;;;0.92;76.67;98431.19;106229;1254;59667;-77
2024/02/06 05:53:08;;;;;;;5.80;2.20;;;;;;;0.89;77.07;98433.04;106588;1254;59640;-77
2024/02/06 05:55:36;;;;;;;6.30;2.70;;;;;;;0.87;77.14;98428.00;107675;1257;73025;-76
2024/02/06 05:58:03;;;;;;;6.60;2.10;;;;;;;0.85;77.42;98425.23;108197;1252;69289;-77
2024/02/06 06:00:31;;;;;;;8.80;2.90;;;;;;;0.94;77.41;98432.45;107882;1256;72488;-83
2024/02/06 06:02:59;;;;;;;9.00;2.90;;;;;;;0.99;77.37;98436.83;107863;1253;59630;-81
2024/02/06 06:05:26;;;;;;;9.70;2.90;;;;;;;0.95;77.42;98435.29;108290;1253;59250;-85
2024/02/06 06:07:54;;;;;;;9.90;2.60;;;;;;;0.91;77.76;98435.07;109366;1252;71754;-84
2024/02/06 06:10:22;;;;;;;10.10;6.10;;;;;;;0.92;77.94;98436.13;108514;1253;68972;-82
2024/02/06 06:12:50;;;;;;;12.00;5.90;;;;;;;1.03;78.10;98433.73;108566;1254;71450;-80
2024/02/06 06:15:18;;;;;;;6.90;2.80;;;;;;;1.13;77.99;98428.02;109010;1253;59288;-82
2024/02/06 06:17:45;;;;;;;6.60;2.60;;;;;;;1.16;78.13;98430.19;107207;1257;60036;-85
2024/02/06 06:20:13;;;;;;;8.70;2.00;;;;;;;1.15;78.16;98435.92;107347;1256;73056;-85
2024/02/06 06:22:41;;;;;;;8.00;2.70;;;;;;;1.12;78.23;98443.04;106433;1259;69214;-84
2024/02/06 06:25:09;;;;;;;6.30;2.20;;;;;;;1.14;78.35;98449.04;106805;1256;71406;-81
2024/02/06 06:27:41;;;;;;;9.30;2.80;;;;;;;1.23;78.37;98454.54;107003;1258;60523;-86
2024/02/06 06:30:10;;;;;;;10.10;2.50;;;;;;;1.23;78.72;98457.66;107548;1259;61235;-85
2024/02/06 06:32:37;;;;;;;5.50;2.70;;;;;;;1.21;78.84;98461.22;108260;1251;74010;-83
2024/02/06 06:35:05;;;;;;;8.20;3.50;;;;;;;1.18;78.97;98463.73;106726;1254;68736;-84
2024/02/06 06:37:33;;;;;;;10.50;3.30;;;;;;;1.22;79.23;98468.77;106813;1257;72692;-84
2024/02/06 06:40:07;;;;;;;6.70;3.30;;;;;;;1.26;79.21;98468.40;106550;1260;60472;-85
2024/02/06 06:42:36;;;;;;;8.00;3.20;;;;;;;1.23;79.79;98475.13;107652;1254;60025;-83
2024/02/06 06:45:04;;;;;;;8.90;3.70;;;;;;;1.19;80.05;98474.48;108873;1257;72592;-80
2024/02/06 06:47:31;;;;;;;10.60;3.90;;;;;;;1.19;80.56;98474.12;107107;1253;69194;-83
2024/02/06 06:49:59;;;;;;;10.60;3.70;;;;;;;1.23;80.68;98475.10;107104;1253;72689;-81
2024/02/06 06:52:29;;;;;;;8.80;4.00;;;;;;;1.20;81.41;98477.52;108829;1257;60418;-81
2024/02/06 06:54:58;;;;;;;9.20;4.50;;;;;;;1.07;82.56;98472.09;108845;1252;60540;-80
2024/02/06 06:57:26;;;;;;;11.00;4.40;;;;;;;1.03;83.55;98473.09;108772;1252;72583;-82
2024/02/06 06:59:53;;;;;;;10.90;4.70;;;;;;;1.06;84.13;98473.21;108790;1256;68682;-81
2024/02/06 07:02:21;;;;;;;8.70;4.90;;;;;;;1.03;84.73;98472.04;108912;1254;71502;-81
2024/02/06 07:04:49;;;;;;;7.90;3.20;;;;;;;0.95;86.01;98472.61;107900;1253;60333;-82
2024/02/06 07:07:17;;;;;;;8.30;3.90;;;;;;;0.96;86.17;98472.28;109360;1253;59070;-80
2024/02/06 07:09:45;;;;;;;10.90;4.50;;;;;;;1.01;86.69;98470.00;109344;1253;73790;-83
2024/02/06 07:12:12;;;;;;;10.70;3.90;;;;;;;0.98;87.30;98470.23;109465;1257;69352;-80
2024/02/06 07:14:40;;;;;;;9.30;3.40;;;;;;;0.93;87.63;98465.60;109321;1253;71427;-79
2024/02/06 07:17:09;;;;;;;10.40;4.10;;;;;;;0.99;88.16;98470.30;109112;1254;59711;-82
2024/02/06 07:19:37;;;;;;;12.10;4.50;;;;;;;1.06;88.21;98467.60;108843;1252;60348;-83
2024/02/06 07:22:04;;;;;;;9.20;3.10;;;;;;;1.06;88.80;98467.59;107431;1251;72789;-81
2024/02/06 07:24:32;;;;;;;5.90;3.40;;;;;;;1.02;88.88;98470.41;106759;1254;69050;-81
2024/02/06 07:27:00;;;;;;;9.90;4.20;;;;;;;1.05;88.86;98472.45;107000;1253;71485;-82
2024/02/06 07:29:28;;;;;;;9.30;4.30;;;;;;;1.12;88.81;98472.25;106729;1254;60374;-82
2024/02/06 07:31:56;;;;;;;6.60;3.50;;;;;;;1.17;89.16;98472.02;105975;1254;60368;-82
2024/02/06 07:34:23;;;;;;;11.90;4.00;;;;;;;1.15;89.24;98470.61;106487;1261;76381;-81
2024/02/06 07:36:53;;;;;;;5.90;2.80;;;;;;;1.17;89.05;98466.05;106397;1260;69454;-81
2024/02/06 07:39:21;;;;;;;10.20;4.00;;;;;;;1.20;88.50;98471.57;107192;1253;71546;-82
2024/02/06 07:41:49;;;;;;;9.40;4.50;;;;;;;1.17;88.56;98467.67;108459;1254;60287;-82
2024/02/06 07:44:17;;;;;;;8.30;3.90;;;;;;;1.14;88.90;98468.63;106462;1255;60486;-81
2024/02/06 07:46:45;;;;;;;8.80;3.80;;;;;;;1.19;88.85;98474.29;106164;1254;73944;-81
2024/02/06 07:49:12;;;;;;;7.60;3.10;;;;;;;1.25;88.68;98467.66;106304;1254;72791;-81
2024/02/06 07:51:41;;;;;;;8.70;4.00;;;;;;;1.23;88.55;98458.52;106486;1261;70271;-83
2024/02/06 07:54:09;;;;;;;8.10;3.60;;;;;;;1.25;88.83;98466.09;106944;1255;60697;-80
2024/02/06 07:56:37;;;;;;;9.70;3.40;;;;;;;1.29;88.70;98467.11;106867;1254;60515;-79
2024/02/06 07:59:05;;;;;;;9.50;3.40;;;;;;;1.39;88.08;98466.90;107940;1252;72610;-86
2024/02/06 08:01:34;;;;;;;9.10;3.20;;;;;;;1.43;87.46;98469.52;107948;1253;68889;-86
2024/02/06 08:04:03;;;;;;;7.50;2.80;;;;;;;1.40;87.48;98472.73;107221;1254;71644;-84
2024/02/06 08:06:32;;;;;;;9.40;3.00;;;;;;;1.39;87.30;98475.38;108569;1252;60358;-85
2024/02/06 08:09:00;;;;;;;4.70;2.10;;;;;;;1.49;87.34;98480.82;109299;1253;61054;-85
2024/02/06 08:11:28;;;;;;;5.90;2.40;;;;;;;1.56;87.39;98485.77;109128;1254;72643;-85
2024/02/06 08:13:55;;;;;;;7.10;2.60;;;;;;;1.60;87.75;98486.30;108133;1254;68813;-83
2024/02/06 08:16:23;;;;;;;6.70;2.50;;;;;;;1.61;87.79;98476.88;107604;1256;70518;-83
2024/02/06 08:18:50;;;;;;;7.40;2.80;;;;;;;1.68;87.45;98467.34;106775;1256;60533;-84
2024/02/06 08:21:18;;;;;;;8.10;4.20;;;;;;;1.77;86.95;98469.69;106587;1256;60475;-86
2024/02/06 08:23:45;;;;;;;7.00;3.50;;;;;;;1.77;86.88;98470.19;106702;1257;74224;-82
2024/02/06 08:26:13;;;;;;;8.60;3.30;;;;;;;1.70;87.14;98469.41;106553;1259;69731;-83
2024/02/06 08:28:40;;;;;;;9.40;3.20;;;;;;;1.68;87.70;98469.27;106428;1256;72937;-84
2024/02/06 08:31:09;;;;;;;6.40;3.00;;;;;;;1.77;87.59;98468.28;107206;1255;60423;-83
2024/02/06 08:33:37;;;;;;;7.10;3.00;;;;;;;1.86;87.71;98466.88;107857;1255;58489;-83
2024/02/06 08:36:05;;;;;;;10.80;5.30;;;;;;;1.91;87.71;98472.69;107448;1255;73994;-86
2024/02/06 08:38:33;;;;;;;9.80;5.30;;;;;;;1.90;87.38;98473.86;108807;1256;69030;-82
2024/02/06 08:41:03;;;;;;;9.80;6.00;;;;;;;1.91;87.47;98470.44;108986;1254;71519;-82
2024/02/06 08:43:31;;;;;;;7.30;5.20;;;;;;;1.98;86.92;98468.75;107096;1253;60433;-85
2024/02/06 08:46:15;;;;;;;9.60;6.70;;;;;;;1.99;86.99;98474.79;106989;1255;60473;-86
2024/02/06 08:48:43;;;;;;;10.20;5.10;;;;;;;1.93;86.30;98480.56;107534;1255;72777;-81
2024/02/06 08:51:11;;;;;;;9.20;5.30;;;;;;;1.89;86.72;98470.30;106557;1254;71411;-84
2024/02/06 08:53:39;;;;;;;7.70;6.30;;;;;;;1.92;86.25;98472.95;107141;1256;70396;-84
2024/02/06 08:56:07;;;;;;;11.20;6.60;;;;;;;1.88;86.31;98472.06;106873;1256;60447;-82
2024/02/06 08:58:35;;;;;;;14.10;8.30;;;;;;;1.81;86.87;98472.26;106762;1257;60473;-85
2024/02/06 09:01:02;;;;;;;11.90;7.40;;;;;;;1.75;87.30;98473.00;106565;1256;72892;-82
2024/02/06 09:03:31;;;;;;;10.40;8.10;;;;;;;1.78;87.34;98469.34;106773;1254;70318;-85
2024/02/06 09:05:58;;;;;;;9.80;7.20;;;;;;;1.81;87.42;98476.59;106717;1260;72299;-80
2024/02/06 09:08:26;;;;;;;7.30;4.50;;;;;;;1.74;87.45;98475.54;107734;1259;60413;-81
2024/02/06 09:10:54;;;;;;;7.70;4.60;;;;;;;1.74;87.61;98469.17;108832;1256;58879;-83
2024/02/06 09:13:23;;;;;;;8.60;6.30;;;;;;;1.82;87.69;98469.17;109081;1256;72203;-80
2024/02/06 09:15:54;;;;;;;11.80;7.80;;;;;;;1.85;87.77;98470.52;107870;1257;68898;-81
2024/02/06 09:18:22;;;;;;;14.90;8.40;;;;;;;1.85;88.46;98464.06;106734;1257;73705;-80
2024/02/06 09:20:50;;;;;;;11.30;8.10;;;;;;;1.92;88.34;98463.21;107106;1257;61805;-84
2024/02/06 09:23:18;;;;;;;15.90;9.80;;;;;;;2.01;88.12;98456.02;106882;1258;60403;-84
2024/02/06 09:25:46;;;;;;;13.20;10.30;;;;;;;2.03;88.16;98456.25;106660;1257;72647;-82
2024/02/06 09:28:14;;;;;;;9.50;5.70;;;;;;;1.99;87.68;98457.62;106354;1258;72615;-82
2024/02/06 09:30:42;;;;;;;8.10;5.50;;;;;;;1.98;87.05;98453.60;106446;1259;75147;-80
2024/02/06 09:33:09;;;;;;;8.70;6.60;;;;;;;1.97;86.97;98452.61;106380;1259;60576;-79
2024/02/06 09:35:38;;;;;;;8.60;6.40;;;;;;;1.89;87.10;98451.77;106336;1257;60566;-81
2024/02/06 09:38:06;;;;;;;13.10;7.10;;;;;;;1.78;87.78;98455.02;106326;1257;73726;-81
2024/02/06 09:40:35;;;;;;;10.40;7.30;;;;;;;1.75;88.63;98454.45;107753;1257;68887;-80
2024/02/06 09:43:04;;;;;;;12.30;8.90;;;;;;;1.83;88.98;98455.34;106981;1259;73730;-81
2024/02/06 09:45:33;;;;;;;14.30;9.70;;;;;;;1.80;89.32;98454.40;106704;1258;60497;-82
2024/02/06 09:48:01;;;;;;;13.30;9.10;;;;;;;1.73;89.88;98451.15;106592;1258;60506;-83
2024/02/06 09:50:29;;;;;;;12.10;8.70;;;;;;;1.78;90.31;98455.10;107380;1257;75082;-81
2024/02/06 09:52:59;;;;;;;15.40;9.40;;;;;;;1.84;90.14;98446.61;107391;1258;71040;-81
2024/02/06 09:55:27;;;;;;;12.10;8.00;;;;;;;1.81;90.11;98444.52;106604;1259;75003;-83
2024/02/06 09:57:55;;;;;;;10.30;7.20;;;;;;;1.74;90.39;98442.27;106524;1259;61482;-82
2024/02/06 10:00:24;;;;;;;14.00;7.90;;;;;;;1.81;90.60;98439.95;106596;1257;60458;-81
2024/02/06 10:02:56;;;;;;;9.70;6.80;;;;;;;1.85;90.56;98437.84;107125;1259;75251;-82
2024/02/06 10:05:26;;;;;;;9.70;6.90;;;;;;;1.81;90.74;98440.48;108218;1257;69298;-81
2024/02/06 10:07:57;;;;;;;15.80;11.00;;;;;;;1.74;90.79;98438.11;108736;1257;73531;-80
2024/02/06 10:10:25;;;;;;;13.90;9.70;;;;;;;1.78;90.51;98433.10;108826;1258;59573;-81
2024/02/06 10:12:53;;;;;;;16.20;11.30;;;;;;;1.82;90.59;98430.12;108829;1257;59097;-83
2024/02/06 10:15:21;;;;;;;15.90;11.30;;;;;;;1.80;90.90;98433.04;109058;1257;73461;-82
2024/02/06 10:17:54;;;;;;;16.50;10.00;;;;;;;1.79;91.25;98437.67;108896;1259;71239;-82
2024/02/06 10:20:24;;;;;;;19.40;13.70;;;;;;;1.84;91.12;98428.73;106973;1257;74912;-84
2024/02/06 10:22:51;;;;;;;17.60;10.90;;;;;;;1.89;90.94;98433.23;106555;1259;61824;-81
2024/02/06 10:25:19;;;;;;;16.60;10.80;;;;;;;1.86;90.68;98433.02;107384;1257;60364;-81
2024/02/06 10:27:56;;;;;;;16.60;10.80;;;;;;;1.77;90.90;98430.41;108076;1257;73322;-81
2024/02/06 10:30:23;;;;;;;14.20;10.00;;;;;;;1.75;91.26;98423.23;108003;1259;68617;-83
2024/02/06 10:32:53;;;;;;;14.00;10.60;;;;;;;1.85;91.27;98425.58;108109;1257;73580;-81
2024/02/06 10:35:22;;;;;;;14.30;8.60;;;;;;;1.94;91.30;98425.11;108187;1260;60368;-80
2024/02/06 10:37:50;;;;;;;13.60;9.10;;;;;;;1.92;91.40;98418.61;107845;1258;59711;-78
2024/02/06 10:40:20;;;;;;;11.50;8.90;;;;;;;1.89;91.49;98420.35;107835;1257;72868;-80
2024/02/06 10:42:48;;;;;;;9.10;6.70;;;;;;;1.92;91.24;98417.41;108260;1257;68697;-81
2024/02/06 10:45:36;;;;;;;7.70;5.90;;;;;;;1.97;91.19;98420.13;107223;1258;71543;-77
2024/02/06 10:48:04;;;;;;;7.80;6.70;;;;;;;1.90;91.24;98418.65;105659;1258;60565;-79
2024/02/06 10:50:32;;;;;;;13.00;8.80;;;;;;;1.88;91.51;98414.02;105814;1256;60741;-77
2024/02/06 10:53:02;;;;;;;21.20;14.90;;;;;;;1.93;91.63;98414.67;105983;1259;73975;-79
2024/02/06 10:55:31;;;;;;;14.70;11.10;;;;;;;1.94;91.79;98417.20;105986;1259;72385;-79
2024/02/06 10:58:06;;;;;;;18.50;11.70;;;;;;;1.91;92.35;98416.51;106130;1257;73256;-85
2024/02/06 11:00:39;;;;;;;30.20;17.20;;;;;;;1.93;92.25;98410.52;107018;1257;61156;-84
2024/02/06 11:03:09;;;;;;;23.30;15.50;;;;;;;1.97;92.34;98412.20;107137;1258;60932;-89
2024/02/06 11:05:45;;;;;;;20.70;13.20;;;;;;;1.97;92.45;98408.76;107977;1259;73267;-87
2024/02/06 11:08:14;;;;;;;26.10;15.60;;;;;;;1.92;92.81;98416.20;108512;1259;69740;-86
2024/02/06 11:10:55;;;;;;;17.00;10.80;;;;;;;1.93;92.79;98419.27;109109;1257;73942;-85
2024/02/06 11:13:29;;;;;;;13.00;8.80;;;;;;;2.01;92.82;98420.95;108376;1256;61842;-86
2024/02/06 11:16:05;;;;;;;17.80;10.30;;;;;;;2.00;92.56;98419.61;107635;1259;60321;-85
2024/02/06 11:18:39;;;;;;;11.80;7.70;;;;;;;1.93;92.50;98417.48;107837;1257;72005;-86
2024/02/06 11:21:08;;;;;;;10.50;6.40;;;;;;;1.95;92.51;98415.23;108868;1259;70105;-88
2024/02/06 11:23:36;;;;;;;20.40;9.60;;;;;;;2.01;92.43;98411.89;109013;1257;73748;-87
2024/02/06 11:26:05;;;;;;;16.20;8.80;;;;;;;1.98;92.50;98414.44;108453;1258;60457;-85
2024/02/06 11:28:46;;;;;;;11.40;7.40;;;;;;;2.00;93.21;98415.48;107146;1257;61966;-87
2024/02/06 11:31:14;;;;;;;18.80;11.20;;;;;;;2.08;92.80;98411.51;106722;1257;74274;-87
2024/02/06 11:33:42;;;;;;;17.30;9.90;;;;;;;2.14;92.19;98407.50;106429;1257;70982;-84
2024/02/06 11:36:16;;;;;;;18.00;10.90;;;;;;;2.07;92.16;98399.02;106586;1258;74936;-84